Time;durP1;ratioP1;P1;durP2;ratioP2;P2;SDS_P1;SDS_P2;PMS_P1;PMS_P2;Temp;Humidity;BMP_temperature;BMP_pressure;BME280_temperature;BME280_humidity;BME280_pressure;Samples;Min_cycle;Max_cycle;Signal;HPM_P1;HPM_P2
2021/07/26 00:02:03;;;;;;;5.50;4.43;;;18.80;99.90;;;;;;5032717;28;20037;-76
2021/07/26 00:04:29;;;;;;;7.78;4.93;;;18.80;99.90;;;;;;5031438;28;20017;-75
2021/07/26 00:06:55;;;;;;;8.13;3.85;;;18.80;99.90;;;;;;5032110;28;20606;-77
2021/07/26 00:09:21;;;;;;;4.95;4.45;;;18.80;99.90;;;;;;5032799;28;20053;-76
2021/07/26 00:11:46;;;;;;;4.80;4.32;;;18.80;99.90;;;;;;5033109;28;20022;-75
2021/07/26 00:14:12;;;;;;;5.72;4.70;;;18.80;99.90;;;;;;5033869;28;20025;-75
2021/07/26 00:16:37;;;;;;;5.93;5.35;;;18.80;99.90;;;;;;5046553;28;20017;-75
2021/07/26 00:19:03;;;;;;;4.65;4.15;;;18.80;99.90;;;;;;5053586;28;20055;-75
2021/07/26 00:21:29;;;;;;;4.88;4.28;;;18.80;99.90;;;;;;5037289;28;20029;-76
2021/07/26 00:23:57;;;;;;;7.35;4.22;;;18.90;99.90;;;;;;5034778;28;20033;-76
2021/07/26 00:26:25;;;;;;;4.97;4.50;;;18.80;99.90;;;;;;5046707;28;20112;-76
2021/07/26 00:28:50;;;;;;;4.57;4.10;;;18.70;99.90;;;;;;5042536;28;20054;-77
2021/07/26 00:31:16;;;;;;;4.43;4.03;;;18.70;99.90;;;;;;5030776;28;20018;-76
2021/07/26 00:34:27;;;;;;;6.38;4.47;;;18.60;99.90;;;;;;5030611;28;20030;-76
2021/07/26 00:36:58;;;;;;;4.88;4.15;;;18.50;99.90;;;;;;5033454;28;20018;-76
2021/07/26 00:39:28;;;;;;;4.90;4.50;;;18.50;99.90;;;;;;5034042;28;20112;-76
2021/07/26 00:41:55;;;;;;;5.13;4.18;;;18.50;99.90;;;;;;5023242;28;20045;-76
2021/07/26 00:44:22;;;;;;;3.80;3.50;;;18.50;99.90;;;;;;5024639;28;20037;-76
2021/07/26 00:46:49;;;;;;;4.40;4.00;;;18.50;99.90;;;;;;5008983;28;20025;-75
2021/07/26 00:49:16;;;;;;;4.47;4.07;;;18.70;99.90;;;;;;5020195;28;20018;-76
2021/07/26 00:51:46;;;;;;;6.15;3.70;;;18.70;99.90;;;;;;5037722;28;20017;-77
2021/07/26 00:54:14;;;;;;;7.10;3.65;;;18.60;99.90;;;;;;5034397;28;20056;-76
2021/07/26 00:56:41;;;;;;;4.47;4.07;;;18.40;99.90;;;;;;5034150;28;20052;-76
2021/07/26 00:59:08;;;;;;;4.32;3.92;;;18.40;99.90;;;;;;5033118;28;20021;-75
2021/07/26 01:01:34;;;;;;;3.88;3.38;;;18.70;99.90;;;;;;5032403;28;20034;-77
2021/07/26 01:03:59;;;;;;;4.53;3.85;;;18.70;99.90;;;;;;5030325;28;20052;-75
2021/07/26 01:06:26;;;;;;;5.90;4.10;;;18.60;99.90;;;;;;5032148;28;20049;-76
2021/07/26 01:08:51;;;;;;;4.85;4.40;;;18.40;99.90;;;;;;5031800;28;20073;-76
2021/07/26 01:11:17;;;;;;;4.70;3.70;;;18.30;99.90;;;;;;5031663;28;20061;-77
2021/07/26 01:13:43;;;;;;;4.65;4.25;;;18.30;99.90;;;;;;5031664;28;20026;-76
2021/07/26 01:16:09;;;;;;;5.07;4.57;;;18.10;99.90;;;;;;5032116;28;20028;-77
2021/07/26 01:18:36;;;;;;;4.63;3.95;;;18.10;99.90;;;;;;5031446;28;20022;-76
2021/07/26 01:21:07;;;;;;;5.20;4.35;;;18.10;99.90;;;;;;5031645;28;20029;-76
2021/07/26 01:23:34;;;;;;;7.68;4.68;;;18.10;99.90;;;;;;5031769;28;21406;-76
2021/07/26 01:26:02;;;;;;;6.03;4.20;;;18.10;99.90;;;;;;5031242;28;20528;-75
2021/07/26 01:28:32;;;;;;;5.32;3.83;;;18.10;99.90;;;;;;5022601;28;20028;-76
2021/07/26 01:30:59;;;;;;;4.88;4.38;;;18.10;99.90;;;;;;5004662;28;20070;-76
2021/07/26 01:33:25;;;;;;;5.55;4.35;;;18.00;99.90;;;;;;5016135;28;20461;-76
2021/07/26 01:35:52;;;;;;;7.50;5.03;;;18.00;99.90;;;;;;5033203;28;20057;-76
2021/07/26 01:38:18;;;;;;;7.40;4.00;;;17.90;99.90;;;;;;5015723;28;20175;-76
2021/07/26 01:40:49;;;;;;;6.10;4.38;;;18.00;99.90;;;;;;5033007;28;20021;-75
2021/07/26 01:43:15;;;;;;;4.03;3.60;;;18.00;99.90;;;;;;5031555;28;20082;-75
2021/07/26 01:45:47;;;;;;;4.70;4.30;;;18.00;99.90;;;;;;5031582;28;20101;-76
2021/07/26 01:48:26;;;;;;;6.05;4.10;;;18.10;99.90;;;;;;5035058;28;20064;-78
2021/07/26 01:51:02;;;;;;;7.35;4.00;;;18.00;99.90;;;;;;5050560;28;20021;-75
2021/07/26 01:53:29;;;;;;;6.03;4.40;;;18.10;99.90;;;;;;5034168;28;20028;-76
2021/07/26 01:55:55;;;;;;;6.93;3.90;;;18.10;99.90;;;;;;5040036;28;20014;-76
2021/07/26 01:58:21;;;;;;;4.38;3.65;;;18.00;99.90;;;;;;5046812;28;20028;-76
2021/07/26 02:00:46;;;;;;;6.65;4.45;;;18.00;99.90;;;;;;5015522;28;20025;-76
2021/07/26 02:03:12;;;;;;;4.57;4.18;;;18.00;99.90;;;;;;5032696;28;20072;-76
2021/07/26 02:05:37;;;;;;;8.75;4.47;;;18.10;99.90;;;;;;5032340;28;20034;-75
2021/07/26 02:08:03;;;;;;;4.25;3.88;;;18.10;99.90;;;;;;5032501;28;20022;-76
2021/07/26 02:10:29;;;;;;;5.47;4.25;;;18.30;99.90;;;;;;5032232;28;20468;-76
2021/07/26 02:12:57;;;;;;;4.32;3.92;;;18.30;99.90;;;;;;5031875;28;20024;-75
2021/07/26 02:15:22;;;;;;;7.63;3.92;;;18.40;99.90;;;;;;5013462;28;20353;-75
2021/07/26 02:17:48;;;;;;;4.93;4.40;;;18.60;99.90;;;;;;5022892;28;20097;-76
2021/07/26 02:20:16;;;;;;;5.80;4.18;;;18.50;99.90;;;;;;5014200;28;20095;-76
2021/07/26 02:22:42;;;;;;;4.78;4.30;;;18.50;99.90;;;;;;5032073;28;20480;-75
2021/07/26 02:25:08;;;;;;;6.53;4.38;;;18.60;99.90;;;;;;5014409;28;20038;-75
2021/07/26 02:27:34;;;;;;;5.22;4.20;;;18.60;99.90;;;;;;5031858;28;20021;-77
2021/07/26 02:30:00;;;;;;;8.18;4.05;;;18.50;99.90;;;;;;5014033;28;20505;-75
2021/07/26 02:32:25;;;;;;;6.80;4.22;;;18.50;99.90;;;;;;5031776;28;20033;-75
2021/07/26 02:34:51;;;;;;;4.32;3.92;;;18.50;99.90;;;;;;5031680;28;20036;-77
2021/07/26 02:37:16;;;;;;;7.25;5.10;;;18.40;99.90;;;;;;5031275;28;20033;-76
2021/07/26 02:39:44;;;;;;;12.77;4.32;;;18.40;99.90;;;;;;5012769;28;20087;-76
2021/07/26 02:42:09;;;;;;;8.07;4.28;;;18.30;99.90;;;;;;5030857;28;20025;-77
2021/07/26 02:44:35;;;;;;;9.05;4.53;;;18.40;99.90;;;;;;5035519;28;20553;-76
2021/07/26 02:47:01;;;;;;;5.07;4.15;;;18.40;99.90;;;;;;5031759;28;20092;-77
2021/07/26 02:49:26;;;;;;;4.53;4.00;;;18.40;99.90;;;;;;5013291;28;20034;-77
2021/07/26 02:51:52;;;;;;;5.93;4.95;;;18.40;99.90;;;;;;5011997;28;20057;-77
2021/07/26 02:54:17;;;;;;;4.53;4.00;;;18.50;99.90;;;;;;5031329;28;20053;-77
2021/07/26 02:56:43;;;;;;;4.85;4.13;;;18.60;99.90;;;;;;5031053;28;20473;-77
2021/07/26 02:59:09;;;;;;;4.60;4.20;;;18.50;99.90;;;;;;5031598;28;20025;-77
2021/07/26 03:01:34;;;;;;;5.80;4.40;;;18.50;99.90;;;;;;5012863;28;20021;-77
2021/07/26 03:04:01;;;;;;;6.20;4.28;;;18.50;99.90;;;;;;5031776;28;20033;-76
2021/07/26 03:06:27;;;;;;;4.70;4.13;;;18.40;99.90;;;;;;5034219;28;20100;-77
2021/07/26 03:08:52;;;;;;;6.55;4.25;;;18.40;99.90;;;;;;5035627;28;20113;-77
2021/07/26 03:11:18;;;;;;;6.18;4.70;;;18.40;99.90;;;;;;5034631;28;20025;-77
2021/07/26 03:13:45;;;;;;;5.20;4.47;;;18.30;99.90;;;;;;5035191;28;20021;-75
2021/07/26 03:16:12;;;;;;;8.68;4.10;;;18.30;99.90;;;;;;5034155;28;20025;-78
2021/07/26 03:18:38;;;;;;;5.13;4.45;;;18.30;99.90;;;;;;5034740;28;20086;-77
2021/07/26 03:21:04;;;;;;;6.13;4.03;;;18.30;99.90;;;;;;5035518;28;20026;-77
2021/07/26 03:23:31;;;;;;;4.53;4.13;;;18.20;99.90;;;;;;5035135;28;20022;-77
2021/07/26 03:25:56;;;;;;;6.68;4.43;;;18.20;99.90;;;;;;5035445;28;20025;-76
2021/07/26 03:28:22;;;;;;;6.05;4.30;;;18.20;99.90;;;;;;5035545;28;20044;-75
2021/07/26 03:30:47;;;;;;;5.43;4.20;;;18.10;99.90;;;;;;5036025;28;20076;-75
2021/07/26 03:33:13;;;;;;;6.65;4.60;;;18.20;99.90;;;;;;5022408;28;20022;-76
2021/07/26 03:35:39;;;;;;;11.00;4.78;;;18.30;99.90;;;;;;5027738;28;20156;-76
2021/07/26 03:38:05;;;;;;;7.53;4.28;;;18.20;99.90;;;;;;5034901;28;20025;-76
2021/07/26 03:40:32;;;;;;;7.57;4.00;;;18.20;99.90;;;;;;5034636;28;20029;-76
2021/07/26 03:42:58;;;;;;;6.28;4.32;;;18.10;99.90;;;;;;5036002;28;20030;-76
2021/07/26 03:45:24;;;;;;;6.13;4.55;;;18.10;99.90;;;;;;5035911;28;20036;-75
2021/07/26 03:47:50;;;;;;;5.13;4.10;;;18.10;99.90;;;;;;5025402;28;20585;-75
2021/07/26 03:50:16;;;;;;;6.30;4.07;;;18.20;99.90;;;;;;5037958;28;20025;-75
2021/07/26 03:52:53;;;;;;;4.97;4.47;;;18.30;99.90;;;;;;5018037;28;20050;-75
2021/07/26 03:55:29;;;;;;;6.03;4.18;;;18.50;99.90;;;;;;5035926;28;20030;-75
2021/07/26 03:57:55;;;;;;;5.53;4.32;;;18.40;99.90;;;;;;5041042;28;20030;-75
2021/07/26 04:00:22;;;;;;;7.53;4.25;;;18.20;99.90;;;;;;5042254;28;20025;-76
2021/07/26 04:02:53;;;;;;;11.05;4.45;;;18.00;99.90;;;;;;5040774;28;20017;-76
2021/07/26 04:08:05;;;;;;;5.82;4.13;;;18.10;99.90;;;;;;5035045;28;20079;-76
2021/07/26 04:10:30;;;;;;;5.30;3.58;;;18.40;99.90;;;;;;5034692;28;20056;-76
2021/07/26 04:12:56;;;;;;;5.78;4.18;;;18.40;99.90;;;;;;5017287;28;20049;-76
2021/07/26 04:15:21;;;;;;;8.02;4.25;;;18.30;99.90;;;;;;5033596;28;20032;-77
2021/07/26 04:17:47;;;;;;;8.95;4.18;;;18.10;99.90;;;;;;5033821;28;20021;-76
2021/07/26 04:20:13;;;;;;;6.53;4.10;;;18.00;99.90;;;;;;5033491;28;20139;-76
2021/07/26 04:22:38;;;;;;;6.38;4.03;;;17.90;99.90;;;;;;5025839;28;20026;-77
2021/07/26 04:25:04;;;;;;;4.38;3.97;;;18.20;99.90;;;;;;5014030;28;20107;-76
2021/07/26 04:27:32;;;;;;;4.28;3.78;;;18.40;99.90;;;;;;5033318;28;20532;-77
2021/07/26 04:29:57;;;;;;;5.25;4.07;;;18.30;99.90;;;;;;5033352;28;20025;-76
2021/07/26 04:32:23;;;;;;;4.43;3.90;;;18.20;99.90;;;;;;5034901;28;20026;-77
2021/07/26 04:34:49;;;;;;;4.90;3.95;;;18.30;99.90;;;;;;5036690;28;20135;-76
2021/07/26 04:37:14;;;;;;;4.03;3.53;;;18.20;99.90;;;;;;5036065;28;20052;-77
2021/07/26 04:39:40;;;;;;;5.03;4.50;;;18.10;99.90;;;;;;5033282;28;20060;-74
2021/07/26 04:42:05;;;;;;;6.82;4.03;;;18.10;99.90;;;;;;5033648;28;20046;-75
2021/07/26 04:44:31;;;;;;;4.53;3.88;;;18.30;99.90;;;;;;5033131;28;20030;-75
2021/07/26 04:46:56;;;;;;;4.60;4.03;;;18.50;99.90;;;;;;5034388;28;20478;-75
2021/07/26 04:49:23;;;;;;;6.93;4.18;;;18.40;99.90;;;;;;5051179;28;20469;-74
2021/07/26 04:51:49;;;;;;;5.47;3.67;;;18.30;99.90;;;;;;5046370;28;20056;-75
2021/07/26 04:54:14;;;;;;;7.53;4.35;;;18.40;99.90;;;;;;5015479;28;20026;-76
2021/07/26 04:56:40;;;;;;;8.80;3.67;;;18.40;99.90;;;;;;5034028;28;20737;-77
2021/07/26 04:59:05;;;;;;;6.68;3.88;;;18.50;99.90;;;;;;5055619;28;20152;-75
2021/07/26 05:01:31;;;;;;;4.78;3.92;;;18.70;99.90;;;;;;5050698;28;20097;-76
2021/07/26 05:03:56;;;;;;;5.70;4.03;;;18.70;99.90;;;;;;5032809;28;20092;-77
2021/07/26 05:06:22;;;;;;;6.78;3.92;;;18.80;99.90;;;;;;5032824;28;20025;-76
2021/07/26 05:08:48;;;;;;;8.30;5.43;;;18.70;99.90;;;;;;5014835;28;20025;-75
2021/07/26 05:11:13;;;;;;;5.63;3.35;;;18.60;99.90;;;;;;5032598;28;20032;-77
2021/07/26 05:13:39;;;;;;;7.28;3.65;;;18.80;99.90;;;;;;5032518;28;20022;-77
2021/07/26 05:16:04;;;;;;;10.80;4.60;;;19.00;99.90;;;;;;5033103;28;20024;-77
2021/07/26 05:18:30;;;;;;;5.38;3.50;;;18.80;99.90;;;;;;5014210;28;20033;-75
2021/07/26 05:20:55;;;;;;;7.57;3.83;;;18.60;99.90;;;;;;5033198;28;20504;-75
2021/07/26 05:23:21;;;;;;;7.75;3.78;;;18.60;99.90;;;;;;5032350;28;20561;-76
2021/07/26 05:25:47;;;;;;;4.45;4.05;;;18.50;99.90;;;;;;5031937;28;20444;-75
2021/07/26 05:28:13;;;;;;;12.10;4.10;;;18.60;99.90;;;;;;5032125;28;20024;-74
2021/07/26 05:30:39;;;;;;;6.35;4.50;;;18.80;99.90;;;;;;5032435;28;20028;-74
2021/07/26 05:33:05;;;;;;;6.03;3.67;;;18.90;99.90;;;;;;5014890;28;20076;-75
2021/07/26 05:35:31;;;;;;;10.20;4.25;;;18.90;99.90;;;;;;5032441;28;20021;-75
2021/07/26 05:37:57;;;;;;;5.00;3.40;;;19.10;99.90;;;;;;5014649;28;20052;-76
2021/07/26 05:40:22;;;;;;;8.15;3.97;;;19.10;99.90;;;;;;5032680;28;20580;-76
2021/07/26 05:42:48;;;;;;;5.63;3.95;;;19.10;99.90;;;;;;5032629;28;20030;-75
2021/07/26 05:45:13;;;;;;;9.82;4.47;;;19.10;99.90;;;;;;5032291;28;20029;-75
2021/07/26 05:47:39;;;;;;;6.38;3.67;;;19.10;99.90;;;;;;5032813;28;20497;-76
2021/07/26 05:50:05;;;;;;;8.82;4.07;;;19.40;99.90;;;;;;5033306;28;20144;-76
2021/07/26 05:52:31;;;;;;;4.32;3.92;;;19.70;99.90;;;;;;5014903;28;20029;-76
2021/07/26 05:54:57;;;;;;;8.23;3.85;;;20.30;99.90;;;;;;5032885;28;20390;-75
2021/07/26 05:57:24;;;;;;;9.40;4.43;;;21.00;99.90;;;;;;5033213;28;20409;-75
2021/07/26 05:59:53;;;;;;;7.60;3.55;;;21.40;99.90;;;;;;5035768;28;20221;-76
2021/07/26 06:02:18;;;;;;;3.90;3.22;;;21.70;99.90;;;;;;5015732;28;20417;-76
2021/07/26 06:04:44;;;;;;;6.57;3.50;;;22.10;99.90;;;;;;5032714;28;20072;-76
2021/07/26 06:07:10;;;;;;;3.78;3.20;;;22.40;99.90;;;;;;5031453;28;20021;-77
2021/07/26 06:09:35;;;;;;;11.80;3.53;;;22.60;99.90;;;;;;5013243;28;20053;-77
2021/07/26 06:12:01;;;;;;;8.50;3.38;;;23.50;99.90;;;;;;5039088;28;20080;-77
2021/07/26 06:14:26;;;;;;;7.25;2.88;;;23.80;99.90;;;;;;5015240;28;20020;-75
2021/07/26 06:16:53;;;;;;;6.47;3.08;;;24.20;99.90;;;;;;5031736;28;20030;-76
2021/07/26 06:19:20;;;;;;;7.10;3.05;;;24.70;99.90;;;;;;5014577;28;20018;-77
2021/07/26 06:21:52;;;;;;;7.10;3.17;;;24.30;99.90;;;;;;5032580;28;20077;-76
2021/07/26 06:24:20;;;;;;;9.45;4.88;;;24.70;99.90;;;;;;5032120;28;20026;-75
2021/07/26 06:26:46;;;;;;;9.20;3.35;;;23.80;99.90;;;;;;5031118;28;20033;-76
2021/07/26 06:29:12;;;;;;;11.70;3.20;;;22.90;99.90;;;;;;5031796;28;20017;-75
2021/07/26 06:31:38;;;;;;;7.57;3.40;;;22.30;99.90;;;;;;5013872;28;20570;-73
2021/07/26 06:34:06;;;;;;;6.53;3.58;;;22.00;99.90;;;;;;5030851;28;20025;-73
2021/07/26 06:36:32;;;;;;;5.43;3.70;;;22.00;99.90;;;;;;5016573;28;20026;-73
2021/07/26 06:38:58;;;;;;;6.22;3.30;;;21.90;99.90;;;;;;5023320;28;20072;-73
2021/07/26 06:41:24;;;;;;;9.40;3.20;;;21.70;99.90;;;;;;5036356;28;20029;-73
2021/07/26 06:43:53;;;;;;;8.10;3.65;;;21.90;99.90;;;;;;5036039;28;20083;-73
2021/07/26 06:46:19;;;;;;;5.15;3.50;;;21.80;99.90;;;;;;5022894;28;20486;-73
2021/07/26 06:48:45;;;;;;;4.90;3.00;;;22.20;99.90;;;;;;5025148;28;20033;-69
2021/07/26 06:51:10;;;;;;;5.72;3.08;;;22.60;99.90;;;;;;5035860;28;20455;-71
2021/07/26 06:53:36;;;;;;;5.47;3.13;;;22.40;99.90;;;;;;5036174;28;20017;-71
2021/07/26 06:56:07;;;;;;;3.85;3.22;;;22.20;99.90;;;;;;5036113;28;20021;-72
2021/07/26 06:58:36;;;;;;;5.50;3.38;;;22.00;99.90;;;;;;5018509;28;20120;-71
2021/07/26 07:01:04;;;;;;;5.88;3.08;;;22.10;99.90;;;;;;5035962;28;20029;-71
2021/07/26 07:03:29;;;;;;;7.70;3.45;;;22.10;99.90;;;;;;5035363;28;20036;-71
2021/07/26 07:06:12;;;;;;;5.53;2.85;;;22.10;99.90;;;;;;5035628;28;20026;-71
2021/07/26 07:08:38;;;;;;;5.13;3.35;;;22.40;99.90;;;;;;5036159;28;20053;-71
2021/07/26 07:11:09;;;;;;;3.67;2.47;;;22.80;99.90;;;;;;5017539;28;20489;-71
2021/07/26 07:13:36;;;;;;;10.57;3.53;;;22.90;99.90;;;;;;5035238;28;20017;-71
2021/07/26 07:16:02;;;;;;;8.23;3.72;;;23.00;99.90;;;;;;5037294;28;20040;-71
2021/07/26 07:18:28;;;;;;;3.58;2.55;;;23.20;99.90;;;;;;5020128;28;20029;-72
2021/07/26 07:20:54;;;;;;;6.00;3.03;;;23.30;99.90;;;;;;5037234;28;20074;-71
2021/07/26 07:23:19;;;;;;;5.43;2.35;;;23.30;99.90;;;;;;5035941;28;20482;-71
2021/07/26 07:25:45;;;;;;;5.20;3.30;;;23.30;99.90;;;;;;5036299;28;20022;-71
2021/07/26 07:28:10;;;;;;;3.50;2.72;;;23.60;99.90;;;;;;5035991;28;20029;-71
2021/07/26 07:30:36;;;;;;;7.10;3.28;;;23.90;99.90;;;;;;5018557;28;20379;-73
2021/07/26 07:33:02;;;;;;;7.97;3.40;;;23.90;99.90;;;;;;5017974;28;20095;-71
2021/07/26 07:35:28;;;;;;;4.85;2.63;;;23.90;99.90;;;;;;5035294;28;20025;-71
2021/07/26 07:37:54;;;;;;;9.70;3.08;;;23.80;99.90;;;;;;5017053;28;20052;-71
2021/07/26 07:40:22;;;;;;;12.38;3.47;;;23.70;99.90;;;;;;5034563;28;20029;-72
2021/07/26 07:42:49;;;;;;;8.07;4.03;;;23.70;99.90;;;;;;5035006;28;20021;-72
2021/07/26 07:45:14;;;;;;;6.40;3.47;;;24.00;99.90;;;;;;5034458;28;20037;-72
2021/07/26 07:47:40;;;;;;;6.38;3.17;;;24.20;99.90;;;;;;5016788;28;20349;-72
2021/07/26 07:50:07;;;;;;;19.85;5.00;;;24.00;99.90;;;;;;5031794;28;20032;-72
2021/07/26 07:52:34;;;;;;;6.97;3.05;;;24.10;99.90;;;;;;5050324;28;20034;-72
2021/07/26 07:55:00;;;;;;;8.68;3.67;;;24.20;99.90;;;;;;5049313;28;20012;-72
2021/07/26 07:57:28;;;;;;;4.70;3.28;;;24.20;99.90;;;;;;5035746;28;20033;-72
2021/07/26 07:59:54;;;;;;;6.25;3.50;;;24.40;99.90;;;;;;5029579;28;20025;-72
2021/07/26 08:02:20;;;;;;;11.68;3.78;;;24.40;99.90;;;;;;5036446;28;20629;-72
2021/07/26 08:04:46;;;;;;;3.72;3.33;;;24.40;99.90;;;;;;5034708;28;20147;-73
2021/07/26 08:07:11;;;;;;;5.07;2.72;;;24.60;99.90;;;;;;5033721;28;20021;-73
2021/07/26 08:09:37;;;;;;;9.60;3.20;;;24.50;99.90;;;;;;5024638;28;20025;-72
2021/07/26 08:12:03;;;;;;;7.57;2.95;;;24.70;99.90;;;;;;5031006;28;20025;-73
2021/07/26 08:14:28;;;;;;;5.20;2.70;;;24.80;99.90;;;;;;5023420;28;20034;-73
2021/07/26 08:16:59;;;;;;;9.57;3.67;;;24.60;99.90;;;;;;5034363;28;20636;-72
2021/07/26 08:19:25;;;;;;;6.10;2.92;;;24.60;99.90;;;;;;5036960;28;20021;-73
2021/07/26 08:21:50;;;;;;;6.00;3.20;;;24.50;99.90;;;;;;5042910;28;20091;-73
2021/07/26 08:24:16;;;;;;;3.72;2.67;;;24.40;99.90;;;;;;5034390;28;20045;-73
2021/07/26 08:26:41;;;;;;;4.88;2.85;;;24.60;99.90;;;;;;5034486;28;20028;-72
2021/07/26 08:29:07;;;;;;;2.40;2.20;;;25.10;99.90;;;;;;5015418;28;20534;-72
2021/07/26 08:31:32;;;;;;;3.25;2.53;;;25.50;99.90;;;;;;5034670;28;20010;-72
2021/07/26 08:33:58;;;;;;;8.82;2.50;;;25.50;99.90;;;;;;5034379;28;20105;-73
2021/07/26 08:36:23;;;;;;;5.70;2.40;;;25.20;99.90;;;;;;5032655;28;20105;-72
2021/07/26 08:38:49;;;;;;;4.13;2.53;;;25.20;99.90;;;;;;5032912;28;20055;-71
2021/07/26 08:41:15;;;;;;;6.72;3.20;;;25.20;99.90;;;;;;5026249;28;20052;-74
2021/07/26 08:43:41;;;;;;;3.63;2.30;;;25.40;99.90;;;;;;5033349;28;20021;-73
2021/07/26 08:46:08;;;;;;;3.95;2.53;;;25.50;99.90;;;;;;5033031;28;20374;-73
2021/07/26 08:48:35;;;;;;;3.60;2.30;;;25.40;99.90;;;;;;5015095;28;20029;-73
2021/07/26 08:51:02;;;;;;;4.47;1.90;;;25.50;99.90;;;;;;5033472;28;20493;-72
2021/07/26 08:53:28;;;;;;;7.07;3.33;;;25.80;99.90;;;;;;5015674;28;20025;-72
2021/07/26 08:55:54;;;;;;;5.15;2.35;;;26.00;99.90;;;;;;5034191;28;20094;-74
2021/07/26 08:58:20;;;;;;;2.53;2.25;;;26.20;99.90;;;;;;5032777;28;20788;-72
2021/07/26 09:00:46;;;;;;;5.35;2.80;;;26.20;99.90;;;;;;5032691;28;20061;-73
2021/07/26 09:03:11;;;;;;;4.75;2.55;;;26.10;99.90;;;;;;5032307;28;20022;-72
2021/07/26 09:05:37;;;;;;;5.28;2.40;;;26.20;99.90;;;;;;5031076;28;20075;-72
2021/07/26 09:08:03;;;;;;;4.53;2.20;;;26.00;99.90;;;;;;5031044;28;20101;-73
2021/07/26 09:10:36;;;;;;;7.43;2.70;;;26.10;99.90;;;;;;5032221;28;20110;-72
2021/07/26 09:13:02;;;;;;;2.88;1.88;;;26.40;99.90;;;;;;5015472;28;20028;-74
2021/07/26 09:15:36;;;;;;;5.40;2.60;;;26.40;99.90;;;;;;5040517;28;20033;-72
2021/07/26 09:18:02;;;;;;;13.00;2.78;;;26.20;99.90;;;;;;5042158;28;20029;-72
2021/07/26 09:20:29;;;;;;;2.67;2.15;;;26.40;99.90;;;;;;5015667;28;20025;-73
2021/07/26 09:22:58;;;;;;;3.83;2.00;;;26.20;99.90;;;;;;5032954;28;20489;-72
2021/07/26 09:25:28;;;;;;;3.63;2.13;;;26.10;99.90;;;;;;5014741;28;20136;-73
2021/07/26 09:28:11;;;;;;;5.05;2.78;;;26.10;99.90;;;;;;5033313;28;20025;-72
2021/07/26 09:30:46;;;;;;;2.50;2.30;;;26.50;99.90;;;;;;5032026;28;20026;-72
2021/07/26 09:33:28;;;;;;;3.40;2.30;;;26.40;99.90;;;;;;5018762;28;20045;-72
2021/07/26 09:36:17;;;;;;;8.18;1.95;;;26.70;99.90;;;;;;5013586;28;20025;-72
2021/07/26 09:38:52;;;;;;;2.08;1.70;;;26.90;99.90;;;;;;5032292;28;20045;-72
2021/07/26 09:41:37;;;;;;;2.17;1.88;;;27.10;99.90;;;;;;5031973;28;20029;-73
2021/07/26 09:44:05;;;;;;;3.50;1.75;;;27.10;99.90;;;;;;5033066;28;20480;-74
2021/07/26 09:46:31;;;;;;;4.13;2.13;;;27.00;99.90;;;;;;5032279;28;20033;-72
2021/07/26 09:49:14;;;;;;;2.90;1.80;;;27.00;99.90;;;;;;5032102;28;20104;-73
2021/07/26 09:51:41;;;;;;;2.08;1.88;;;27.20;99.70;;;;;;5031780;28;20032;-71
2021/07/26 09:54:08;;;;;;;4.18;2.13;;;27.30;99.10;;;;;;5032380;28;20021;-72
2021/07/26 09:56:34;;;;;;;3.17;1.80;;;27.20;99.00;;;;;;5032642;28;20017;-73
2021/07/26 09:59:01;;;;;;;2.53;2.10;;;27.40;98.40;;;;;;5015138;28;20400;-72
2021/07/26 10:01:28;;;;;;;2.28;1.80;;;27.60;98.10;;;;;;5032604;28;20097;-73
2021/07/26 10:03:54;;;;;;;4.65;1.60;;;27.10;98.30;;;;;;5032887;28;20020;-73
2021/07/26 10:06:20;;;;;;;3.97;2.33;;;27.00;99.20;;;;;;5014383;28;20397;-72
2021/07/26 10:08:49;;;;;;;2.63;1.98;;;27.20;98.50;;;;;;5032031;28;20025;-72
2021/07/26 10:11:15;;;;;;;2.78;2.15;;;27.10;98.80;;;;;;5013889;28;20109;-72
2021/07/26 10:13:44;;;;;;;6.72;2.10;;;27.10;99.60;;;;;;5031082;28;20481;-72
2021/07/26 10:16:17;;;;;;;10.35;2.28;;;27.10;99.60;;;;;;5013888;28;20121;-73
2021/07/26 10:18:48;;;;;;;3.67;1.85;;;26.60;99.90;;;;;;5030996;28;20029;-71
2021/07/26 10:21:16;;;;;;;3.47;2.42;;;26.50;99.60;;;;;;5030540;28;20392;-72
2021/07/26 10:23:58;;;;;;;2.92;2.60;;;26.30;99.90;;;;;;5031929;28;20028;-72
2021/07/26 10:26:33;;;;;;;2.65;2.17;;;26.20;99.90;;;;;;5032197;28;20025;-73
2021/07/26 10:28:59;;;;;;;3.83;1.90;;;26.50;99.90;;;;;;5032649;28;20074;-72
2021/07/26 10:31:28;;;;;;;4.20;2.15;;;27.20;99.90;;;;;;5032907;28;20053;-72
2021/07/26 10:34:05;;;;;;;7.45;2.38;;;27.80;98.90;;;;;;5032248;28;20075;-72
2021/07/26 10:36:45;;;;;;;2.60;2.00;;;27.90;98.60;;;;;;5031758;28;20386;-72
2021/07/26 10:39:11;;;;;;;4.35;2.50;;;28.10;98.10;;;;;;5030755;28;20033;-73
2021/07/26 10:41:43;;;;;;;6.43;2.47;;;27.50;98.30;;;;;;5029184;28;20036;-73
2021/07/26 10:44:15;;;;;;;4.45;2.10;;;27.10;98.50;;;;;;5024502;28;20156;-72
2021/07/26 10:46:56;;;;;;;5.40;2.55;;;27.40;98.20;;;;;;5031135;28;20025;-73
2021/07/26 10:49:45;;;;;;;6.47;2.00;;;27.30;98.40;;;;;;5030943;28;20045;-73
2021/07/26 10:52:23;;;;;;;6.13;2.53;;;27.20;98.90;;;;;;5030902;28;20018;-73
2021/07/26 10:54:49;;;;;;;2.35;2.15;;;27.60;98.10;;;;;;5012082;28;20036;-72
2021/07/26 10:57:35;;;;;;;1.70;1.60;;;28.00;97.30;;;;;;5030632;28;20077;-72
2021/07/26 11:00:09;;;;;;;2.30;1.90;;;28.00;96.70;;;;;;5036118;28;20056;-73
2021/07/26 11:02:39;;;;;;;2.47;2.05;;;27.70;97.30;;;;;;5042753;28;20037;-73
2021/07/26 11:05:24;;;;;;;2.60;1.88;;;28.10;96.80;;;;;;5033054;28;20501;-73
2021/07/26 11:08:18;;;;;;;2.58;1.75;;;28.20;96.50;;;;;;5030861;28;20021;-72
2021/07/26 11:10:50;;;;;;;1.98;1.52;;;28.10;96.60;;;;;;5029508;28;20021;-72
2021/07/26 11:13:17;;;;;;;3.13;2.00;;;28.10;95.80;;;;;;5032479;28;20025;-74
2021/07/26 11:15:47;;;;;;;2.40;2.17;;;27.90;96.10;;;;;;5031685;28;20053;-72
2021/07/26 11:18:19;;;;;;;3.22;2.38;;;27.70;96.60;;;;;;5031440;28;20112;-72
2021/07/26 11:21:13;;;;;;;4.38;1.80;;;28.00;96.40;;;;;;5032046;28;20116;-72
2021/07/26 11:23:49;;;;;;;5.65;2.22;;;27.80;97.40;;;;;;5032580;28;20029;-72
2021/07/26 11:26:15;;;;;;;2.30;2.10;;;27.70;96.00;;;;;;5038064;28;20099;-73
2021/07/26 11:28:41;;;;;;;6.25;2.65;;;27.30;96.50;;;;;;5034822;28;20515;-73
2021/07/26 11:31:07;;;;;;;4.63;2.13;;;27.10;96.80;;;;;;5034218;28;20101;-73
2021/07/26 11:33:33;;;;;;;2.30;2.10;;;27.40;97.30;;;;;;5034827;28;20031;-73
2021/07/26 11:36:07;;;;;;;3.50;2.10;;;27.40;97.50;;;;;;5035742;28;20052;-73
2021/07/26 11:38:32;;;;;;;3.92;2.17;;;27.20;97.20;;;;;;5016568;28;20044;-73
2021/07/26 11:40:58;;;;;;;5.97;2.42;;;27.00;97.90;;;;;;5034886;28;20086;-73
2021/07/26 11:43:36;;;;;;;7.07;2.55;;;26.90;97.60;;;;;;5034778;28;20030;-72
2021/07/26 11:46:02;;;;;;;5.75;2.35;;;26.80;97.70;;;;;;5035067;28;20033;-73
2021/07/26 11:48:28;;;;;;;5.03;2.33;;;27.30;97.10;;;;;;5035760;28;20017;-73
2021/07/26 11:50:54;;;;;;;4.07;2.20;;;27.70;96.50;;;;;;5034938;28;20032;-74
2021/07/26 11:53:27;;;;;;;5.60;2.15;;;27.80;96.50;;;;;;5036119;28;20029;-73
2021/07/26 11:55:52;;;;;;;2.53;2.25;;;27.10;96.70;;;;;;5022169;28;20076;-73
2021/07/26 11:58:27;;;;;;;3.35;2.50;;;26.50;97.20;;;;;;5039591;28;20021;-73
2021/07/26 12:00:54;;;;;;;5.88;2.50;;;26.20;97.70;;;;;;5036714;28;20061;-73
2021/07/26 12:03:23;;;;;;;3.05;2.60;;;25.90;98.70;;;;;;5035424;28;20026;-72
2021/07/26 12:05:59;;;;;;;2.83;2.28;;;25.40;99.90;;;;;;5034049;28;20021;-72
2021/07/26 12:08:27;;;;;;;3.13;2.30;;;24.90;99.90;;;;;;5029526;28;20444;-72
2021/07/26 12:10:53;;;;;;;2.53;2.00;;;24.40;99.90;;;;;;5034248;28;20021;-72
2021/07/26 12:13:20;;;;;;;5.35;2.40;;;24.30;99.90;;;;;;5034431;28;20021;-72
2021/07/26 12:16:05;;;;;;;3.22;2.30;;;24.10;99.90;;;;;;5034603;28;20412;-72
2021/07/26 12:18:32;;;;;;;4.55;2.65;;;23.90;99.90;;;;;;5033823;28;20057;-72
2021/07/26 12:20:58;;;;;;;5.55;2.80;;;23.80;99.90;;;;;;5034088;28;20037;-72
2021/07/26 12:23:28;;;;;;;6.93;2.63;;;23.80;99.90;;;;;;5016476;28;20112;-72
2021/07/26 12:26:08;;;;;;;2.50;2.30;;;24.00;99.90;;;;;;5015871;28;20439;-70
2021/07/26 12:28:43;;;;;;;2.80;2.30;;;23.90;99.90;;;;;;5016256;28;20481;-73
2021/07/26 12:31:29;;;;;;;3.53;2.40;;;23.80;99.90;;;;;;5016241;28;20397;-74
2021/07/26 12:34:24;;;;;;;5.93;3.10;;;23.90;99.90;;;;;;5033732;28;20030;-72
2021/07/26 12:36:50;;;;;;;4.88;2.40;;;23.80;99.90;;;;;;5033560;28;20421;-72
2021/07/26 12:39:18;;;;;;;3.65;2.70;;;23.80;99.90;;;;;;5016298;28;20025;-71
2021/07/26 12:41:44;;;;;;;3.17;2.10;;;23.80;99.90;;;;;;5034338;28;20076;-72
2021/07/26 12:44:14;;;;;;;3.80;2.22;;;23.90;99.90;;;;;;5035457;28;20032;-73
2021/07/26 12:46:49;;;;;;;5.35;2.05;;;23.90;99.90;;;;;;5016458;28;20033;-71
2021/07/26 12:49:16;;;;;;;2.90;1.98;;;23.80;99.90;;;;;;5033738;28;20014;-72
2021/07/26 12:51:42;;;;;;;3.38;2.10;;;23.80;99.90;;;;;;5034082;28;20048;-73
2021/07/26 12:54:08;;;;;;;2.17;1.98;;;24.00;99.90;;;;;;5032307;28;20032;-74